createdAt,value
2019-02-16T00:00:15.875Z,32.3
2019-02-16T00:01:05.886Z,32.5
2019-02-16T00:01:54.849Z,32.4
2019-02-16T00:02:45.804Z,31.7
2019-02-16T00:03:35.796Z,31.6
2019-02-16T00:04:24.737Z,31.4
2019-02-16T00:05:15.422Z,31.1
2019-02-16T00:06:05.499Z,30.6
2019-02-16T00:06:55.256Z,30
2019-02-16T00:07:45.311Z,29.4
2019-02-16T00:08:36.141Z,28.8
2019-02-16T00:09:25.746Z,28.4
2019-02-16T00:10:15.246Z,28.1
2019-02-16T00:11:04.811Z,27.9
2019-02-16T00:12:45.678Z,27.7
2019-02-16T00:13:34.976Z,27.6
2019-02-16T00:14:25.596Z,27.4
2019-02-16T00:15:15.937Z,27.3
2019-02-16T00:16:05.428Z,27.3
2019-02-16T00:16:55.981Z,27
2019-02-16T00:18:35.376Z,28.6
2019-02-16T00:19:25.987Z,29.2
2019-02-16T00:20:16.191Z,29.7
2019-02-16T00:21:11.613Z,30.1
2019-02-16T00:21:56.626Z,30.4
2019-02-16T00:22:47.115Z,30.8
2019-02-16T00:23:36.606Z,30.2
2019-02-16T00:24:27.588Z,29.3
2019-02-16T00:26:07.055Z,26.9
2019-02-16T00:26:56.628Z,25.6
2019-02-16T00:27:46.705Z,24.8
2019-02-16T00:28:37.580Z,25
2019-02-16T00:29:28.124Z,25.6
2019-02-16T00:30:17.622Z,26.9
2019-02-16T00:31:07.463Z,28
2019-02-16T00:31:58.110Z,28.8
2019-02-16T00:32:46.992Z,29.4
2019-02-16T00:33:36.755Z,29.9
2019-02-16T00:34:28.346Z,30.3
2019-02-16T00:35:17.760Z,30.7
2019-02-16T00:36:08.361Z,31
2019-02-16T00:36:57.887Z,31.3
2019-02-16T00:37:48.066Z,31.6
2019-02-16T00:38:38.262Z,31.9
2019-02-16T00:39:28.365Z,32.2
2019-02-16T00:40:18.057Z,32.4
2019-02-16T00:41:08.656Z,32.6
2019-02-16T00:41:57.887Z,32.8
2019-02-16T00:42:49.119Z,31.9
2019-02-16T00:43:37.835Z,31.8
2019-02-16T00:44:30.106Z,31.7
2019-02-16T00:45:18.692Z,31.4
2019-02-16T00:46:08.708Z,30.9
2019-02-16T00:46:57.736Z,30.3
2019-02-16T00:47:49.158Z,29.6
2019-02-16T00:48:38.888Z,29
2019-02-16T00:49:28.716Z,28.4
2019-02-16T00:50:19.274Z,28.1
2019-02-16T00:51:18.457Z,27.9
2019-02-16T00:51:58.614Z,27.6
2019-02-16T00:52:48.049Z,27.6
2019-02-16T00:53:40.900Z,27.5
2019-02-16T00:54:29.346Z,27.4
2019-02-16T00:55:19.341Z,27.3
2019-02-16T00:56:09.118Z,27.2
2019-02-16T00:56:59.266Z,27
2019-02-16T00:57:49.521Z,27.9
2019-02-16T00:58:39.090Z,28.8
2019-02-16T00:59:31.613Z,29.3
2019-02-16T01:00:19.988Z,29.8
2019-02-16T01:01:09.253Z,30.2
2019-02-16T01:01:59.798Z,30.5
2019-02-16T01:02:49.398Z,30.9
2019-02-16T01:03:39.078Z,31.1
2019-02-16T01:04:29.242Z,31.4
2019-02-16T01:05:19.768Z,31.7
2019-02-16T01:06:09.578Z,31.9
2019-02-16T01:06:59.290Z,32.1
2019-02-16T01:07:50.505Z,32.3
2019-02-16T01:08:39.973Z,32.5
2019-02-16T01:09:29.678Z,32.7
2019-02-16T01:10:20.637Z,32.1
2019-02-16T01:11:09.918Z,31.8
2019-02-16T01:11:59.700Z,31.6
2019-02-16T01:12:49.840Z,31.4
2019-02-16T01:13:40.107Z,30.9
2019-02-16T01:14:30.196Z,30.4
2019-02-16T01:15:19.210Z,29.8
2019-02-16T01:16:10.348Z,29.1
2019-02-16T01:17:00.630Z,28.6
2019-02-16T01:17:50.198Z,28.3
2019-02-16T01:18:41.008Z,28
2019-02-16T01:19:30.707Z,27.9
2019-02-16T01:21:11.447Z,27.6
2019-02-16T01:22:00.884Z,27.4
2019-02-16T01:22:51.664Z,27.4
2019-02-16T01:23:40.772Z,27.2
2019-02-16T01:24:30.527Z,27.3
2019-02-16T01:25:21.654Z,28.3
2019-02-16T01:26:10.597Z,28.9
2019-02-16T01:27:01.783Z,29.4
2019-02-16T01:27:51.157Z,29.9
2019-02-16T01:28:41.371Z,30.3
2019-02-16T01:29:31.396Z,30.6
2019-02-16T01:30:20.622Z,30.9
2019-02-16T01:31:11.524Z,31.2
2019-02-16T01:32:01.364Z,31.4
2019-02-16T01:32:51.881Z,31.7
2019-02-16T01:33:42.506Z,31.9
2019-02-16T01:34:31.242Z,32.1
2019-02-16T01:35:20.949Z,32.3
2019-02-16T01:36:12.196Z,32.6
2019-02-16T01:37:02.451Z,32.7
2019-02-16T01:37:51.967Z,32.1
2019-02-16T01:38:41.284Z,31.8
2019-02-16T01:39:32.164Z,31.7
2019-02-16T01:40:21.959Z,31.4
2019-02-16T01:41:11.714Z,31
2019-02-16T01:42:02.369Z,30.4
2019-02-16T01:42:51.738Z,29.8
2019-02-16T01:43:42.390Z,29.1
2019-02-16T01:44:32.495Z,28.6
2019-02-16T01:45:21.660Z,28.3
2019-02-16T01:46:12.555Z,28
2019-02-16T01:47:53.744Z,27.7
2019-02-16T01:48:41.866Z,27.6
2019-02-16T01:49:33.336Z,27.4
2019-02-16T01:50:23.102Z,27.3
2019-02-16T01:51:12.938Z,27.2
2019-02-16T01:52:02.660Z,27.1
2019-02-16T01:52:53.032Z,27.9
2019-02-16T01:53:43.600Z,28.8
2019-02-16T01:54:33.675Z,29.3
2019-02-16T01:55:23.247Z,29.8
2019-02-16T01:56:14.069Z,30.1
2019-02-16T01:57:03.830Z,30.4
2019-02-16T01:57:53.407Z,30.8
2019-02-16T01:58:43.127Z,31.1
2019-02-16T01:59:33.205Z,31.3
2019-02-16T02:00:24.127Z,31.6
2019-02-16T02:01:13.565Z,31.8
2019-02-16T02:02:03.355Z,32.1
2019-02-16T02:02:53.459Z,32.3
2019-02-16T02:03:44.309Z,32.4
2019-02-16T02:04:33.519Z,32.6
2019-02-16T02:05:24.153Z,32.4
2019-02-16T02:06:13.081Z,31.8
2019-02-16T02:07:04.574Z,31.7
2019-02-16T02:07:54.497Z,31.5
2019-02-16T02:08:44.139Z,31.1
2019-02-16T02:09:33.869Z,30.6
2019-02-16T02:10:24.762Z,30
2019-02-16T02:11:14.884Z,29.3
2019-02-16T02:12:04.309Z,28.8
2019-02-16T02:12:55.034Z,28.3
2019-02-16T02:13:43.941Z,28
2019-02-16T02:15:24.281Z,27.7
2019-02-16T02:16:14.672Z,27.6
2019-02-16T02:17:03.886Z,27.4
2019-02-16T02:17:55.261Z,27.4
2019-02-16T02:18:45.068Z,27.2
2019-02-16T02:19:34.625Z,26.9
2019-02-16T02:21:15.075Z,28.6
2019-02-16T02:22:03.938Z,29.2
2019-02-16T02:22:54.873Z,29.6
2019-02-16T02:23:45.665Z,30.1
2019-02-16T02:24:34.728Z,30.4
2019-02-16T02:25:24.768Z,30.7
2019-02-16T02:26:14.812Z,30.9
2019-02-16T02:27:04.899Z,31.3
2019-02-16T02:27:55.209Z,31.4
2019-02-16T02:28:45.021Z,30.3
2019-02-16T02:29:34.782Z,29.1
2019-02-16T02:30:26.352Z,27.9
2019-02-16T02:31:14.900Z,26.8
2019-02-16T02:32:05.858Z,25.4
2019-02-16T02:32:56.062Z,25.1
2019-02-16T02:33:46.434Z,25.2
2019-02-16T02:34:35.597Z,26.2
2019-02-16T02:35:26.282Z,27.4
2019-02-16T02:36:16.405Z,28.3
2019-02-16T02:37:06.127Z,29
2019-02-16T02:37:56.350Z,29.6
2019-02-16T02:38:46.512Z,30.1
2019-02-16T02:39:36.227Z,30.4
2019-02-16T02:40:25.782Z,30.8
2019-02-16T02:41:16.904Z,31.1
2019-02-16T02:42:07.287Z,31.4
2019-02-16T02:42:57.097Z,31.7
2019-02-16T02:43:46.776Z,31.9
2019-02-16T02:44:35.475Z,32.2
2019-02-16T02:45:26.642Z,32.4
2019-02-16T02:46:17.262Z,32.6
2019-02-16T02:47:07.054Z,32.8
2019-02-16T02:47:56.843Z,31.9
2019-02-16T02:48:46.083Z,31.8
2019-02-16T02:49:36.956Z,31.7
2019-02-16T02:50:26.811Z,31.3
2019-02-16T02:51:16.846Z,30.9
2019-02-16T02:52:07.082Z,30.3
2019-02-16T02:53:00.264Z,29.6
2019-02-16T02:53:47.697Z,29
2019-02-16T02:54:37.546Z,28.5
2019-02-16T02:55:28.009Z,28.2
2019-02-16T02:56:17.752Z,28
2019-02-16T02:57:58.039Z,27.7
2019-02-16T02:58:47.552Z,27.6
2019-02-16T02:59:37.070Z,27.4
2019-02-16T03:00:27.709Z,27.3
2019-02-16T03:01:18.172Z,27.1
2019-02-16T03:02:07.849Z,28
2019-02-16T03:02:58.410Z,28.8
2019-02-16T03:03:48.151Z,29.3
2019-02-16T03:04:38.215Z,29.8
2019-02-16T03:08:11.227Z,31.1
2019-02-16T03:09:00.648Z,31.4
2019-02-16T03:09:51.132Z,31.6
2019-02-16T03:10:41.055Z,31.8
2019-02-16T03:11:30.828Z,32.1
2019-02-16T03:12:20.908Z,32.3
2019-02-16T03:13:11.217Z,32.4
2019-02-16T03:14:01.266Z,32.6
2019-02-16T03:14:52.377Z,32.7
2019-02-16T03:15:41.678Z,31.8
2019-02-16T03:16:33.065Z,31.8
2019-02-16T03:17:22.117Z,31.6
2019-02-16T03:18:11.631Z,31.3
2019-02-16T03:19:01.345Z,30.8
2019-02-16T03:19:51.947Z,30.1
2019-02-16T03:20:41.223Z,29.5
2019-02-16T03:21:31.317Z,28.9
2019-02-16T03:22:21.565Z,28.5
2019-02-16T03:23:11.123Z,28.2
2019-02-16T03:24:02.612Z,27.9
2019-02-16T03:25:42.066Z,27.8
2019-02-16T03:26:31.970Z,27.6
2019-02-16T03:27:22.530Z,27.4
2019-02-16T03:28:11.428Z,27.3
2019-02-16T03:29:02.445Z,27
2019-02-16T03:29:53.195Z,27.8
2019-02-16T03:30:42.990Z,28.6
2019-02-16T03:31:32.811Z,29.2
2019-02-16T03:32:22.790Z,29.6
2019-02-16T03:33:13.022Z,30.1
2019-02-16T03:34:02.571Z,30.4
2019-02-16T03:34:53.444Z,30.7
2019-02-16T03:35:44.422Z,31
2019-02-16T03:36:32.842Z,31.3
2019-02-16T03:37:22.324Z,31.5
2019-02-16T03:38:13.009Z,31.7
2019-02-16T03:39:02.247Z,31.9
2019-02-16T03:39:53.141Z,32.2
2019-02-16T03:40:43.167Z,32.3
2019-02-16T03:41:32.758Z,32.5
2019-02-16T03:42:22.671Z,32.8
2019-02-16T03:43:12.985Z,32.4
2019-02-16T03:44:03.983Z,31.8
2019-02-16T03:44:54.186Z,31.8
2019-02-16T03:45:43.498Z,31.5
2019-02-16T03:46:33.280Z,31.1
2019-02-16T03:47:23.836Z,30.6
2019-02-16T03:48:13.080Z,29.9
2019-02-16T03:49:02.899Z,29.3
2019-02-16T03:49:53.430Z,28.9
2019-02-16T03:50:43.078Z,28.5
2019-02-16T03:51:32.502Z,28.3
2019-02-16T03:52:22.902Z,28.1
2019-02-16T03:53:12.897Z,28
2019-02-16T03:54:54.128Z,27.6
2019-02-16T03:55:43.128Z,27.4
2019-02-16T03:56:34.245Z,27.3
2019-02-16T03:57:23.466Z,27.5
2019-02-16T03:58:13.806Z,28.4
2019-02-16T03:59:03.873Z,29
2019-02-16T03:59:53.967Z,29.5
2019-02-16T04:00:44.490Z,29.9
2019-02-16T04:01:34.581Z,30.3
2019-02-16T04:02:24.312Z,30.6
2019-02-16T04:03:14.414Z,30.9
2019-02-16T04:04:05.062Z,31.1
2019-02-16T04:04:54.866Z,31.4
2019-02-16T04:05:45.087Z,31.6
2019-02-16T04:06:34.654Z,31.8
2019-02-16T04:07:24.700Z,32
2019-02-16T04:08:14.275Z,32.2
2019-02-16T04:09:04.638Z,32.4
2019-02-16T04:09:53.716Z,32.6
2019-02-16T04:10:44.449Z,32.7
2019-02-16T04:11:33.942Z,32.6
2019-02-16T04:12:25.141Z,31.8
2019-02-16T04:13:15.325Z,31.8
2019-02-16T04:14:05.169Z,31.6
2019-02-16T04:14:55.291Z,31.1
2019-02-16T04:15:46.119Z,30.6
2019-02-16T04:16:35.371Z,29.9
2019-02-16T04:17:25.379Z,29.3
2019-02-16T04:18:14.404Z,28.8
2019-02-16T04:19:03.954Z,28.4
2019-02-16T04:19:55.024Z,28.1
2019-02-16T04:20:45.556Z,27.9
2019-02-16T04:22:31.603Z,27.7
2019-02-16T04:23:16.586Z,27.5
2019-02-16T04:24:05.688Z,27.4
2019-02-16T04:24:55.620Z,27.2
2019-02-16T04:25:46.686Z,27.2
2019-02-16T04:26:36.239Z,28.1
2019-02-16T04:27:26.288Z,28.8
2019-02-16T04:28:15.894Z,29.3
2019-02-16T04:29:06.993Z,29.8
2019-02-16T04:29:56.161Z,30.1
2019-02-16T04:30:46.682Z,30.4
2019-02-16T04:31:35.799Z,30.6
2019-02-16T04:32:26.486Z,29.7
2019-02-16T04:33:16.741Z,28.6
2019-02-16T04:34:07.031Z,27.3
2019-02-16T04:34:57.110Z,26.4
2019-02-16T04:35:47.500Z,25
2019-02-16T04:36:36.612Z,24.5
2019-02-16T04:37:27.238Z,24.6
2019-02-16T04:38:16.755Z,25.4
2019-02-16T04:39:06.845Z,26.7
2019-02-16T04:39:57.127Z,27.7
2019-02-16T04:40:47.025Z,28.4
2019-02-16T04:41:37.107Z,29.1
2019-02-16T04:42:27.013Z,29.6
2019-02-16T04:43:17.345Z,29.9
2019-02-16T04:44:07.713Z,30.3
2019-02-16T04:44:57.203Z,30.6
2019-02-16T04:45:48.043Z,30.9
2019-02-16T04:46:37.627Z,31.2
2019-02-16T04:47:27.074Z,31.4
2019-02-16T04:48:18.012Z,31.7
2019-02-16T04:49:07.250Z,31.9
2019-02-16T04:49:57.531Z,32.1
2019-02-16T04:50:48.638Z,32.3
2019-02-16T04:51:37.737Z,32.4
2019-02-16T04:52:38.450Z,32.6
2019-02-16T04:53:18.859Z,32.8
2019-02-16T04:54:08.401Z,32.6
2019-02-16T04:54:57.871Z,31.8
2019-02-16T04:55:48.566Z,31.8
2019-02-16T04:56:38.537Z,31.5
2019-02-16T04:57:28.053Z,31.1
2019-02-16T04:58:18.676Z,30.6
2019-02-16T04:59:09.166Z,29.9
2019-02-16T04:59:58.665Z,29.3
2019-02-16T05:00:49.186Z,28.7
2019-02-16T05:01:37.824Z,28.3
2019-02-16T05:02:28.951Z,28
2019-02-16T05:03:18.458Z,27.8
2019-02-16T05:04:07.994Z,27.7
2019-02-16T05:04:59.122Z,27.6
2019-02-16T05:05:48.581Z,27.4
2019-02-16T05:06:39.559Z,27.3
2019-02-16T05:07:29.368Z,27
2019-02-16T05:08:19.058Z,27.6
2019-02-16T05:09:08.889Z,28.4
2019-02-16T05:09:59.909Z,28.9
2019-02-16T05:10:50.006Z,29.4
2019-02-16T05:11:39.666Z,29.8
2019-02-16T05:12:29.031Z,30.1
2019-02-16T05:13:19.971Z,30.4
2019-02-16T05:14:09.741Z,30.7
2019-02-16T05:14:59.007Z,30.9
2019-02-16T05:15:49.507Z,31.2
2019-02-16T05:16:39.378Z,31.4
2019-02-16T05:17:29.720Z,31.6
2019-02-16T05:18:19.251Z,31.8
2019-02-16T05:19:10.398Z,31.9
2019-02-16T05:19:59.571Z,32.1
2019-02-16T05:20:49.927Z,32.3
2019-02-16T05:21:39.752Z,32.3
2019-02-16T05:22:30.040Z,32.4
2019-02-16T05:23:20.377Z,32.6
2019-02-16T05:24:10.961Z,32.7
2019-02-16T05:24:59.945Z,31.8
2019-02-16T05:25:52.450Z,31.6
2019-02-16T05:26:40.592Z,31.5
2019-02-16T05:27:29.887Z,31.2
2019-02-16T05:28:19.895Z,30.7
2019-02-16T05:29:10.000Z,30.1
2019-02-16T05:30:00.590Z,29.4
2019-02-16T05:30:50.688Z,28.9
2019-02-16T05:31:40.132Z,28.5
2019-02-16T05:32:30.977Z,28.2
2019-02-16T05:33:20.927Z,28
2019-02-16T05:34:10.369Z,27.9
2019-02-16T05:35:01.315Z,27.7
2019-02-16T05:35:50.793Z,27.5
2019-02-16T05:36:41.529Z,27.4
2019-02-16T05:37:33.497Z,27.2
2019-02-16T05:38:20.304Z,27.4
2019-02-16T05:39:11.202Z,28.2
2019-02-16T05:40:01.314Z,28.8
2019-02-16T05:40:51.334Z,29.3
2019-02-16T05:41:41.115Z,29.7
2019-02-16T05:42:31.666Z,30
2019-02-16T05:43:21.837Z,30.3
2019-02-16T05:44:11.214Z,30.6
2019-02-16T05:45:01.497Z,30.8
2019-02-16T05:45:51.759Z,31.1
2019-02-16T05:46:41.671Z,31.3
2019-02-16T05:47:32.035Z,31.4
2019-02-16T05:48:22.493Z,31.6
2019-02-16T05:49:12.091Z,31.8
2019-02-16T05:50:01.644Z,31.9
2019-02-16T05:50:52.813Z,32.1
2019-02-16T05:51:42.342Z,32.3
2019-02-16T05:52:32.378Z,32.4
2019-02-16T05:53:24.455Z,32.5
2019-02-16T05:54:12.198Z,32.7
2019-02-16T05:55:02.480Z,32.5
2019-02-16T05:55:51.341Z,31.8
2019-02-16T05:56:42.613Z,31.8
2019-02-16T05:57:31.645Z,31.6
2019-02-16T05:58:22.450Z,31.2
2019-02-16T05:59:14.802Z,30.6
2019-02-16T06:00:02.608Z,30
2019-02-16T06:00:52.392Z,29.4
2019-02-16T06:01:42.430Z,28.9
2019-02-16T06:02:33.006Z,28.5
2019-02-16T06:03:22.587Z,28.3
2019-02-16T06:06:10.640Z,27.6
2019-02-16T06:07:00.747Z,27.4
2019-02-16T06:07:50.607Z,27.3
2019-02-16T06:08:40.967Z,26.9
2019-02-16T06:09:31.185Z,27.4
2019-02-16T06:10:21.273Z,28.2
2019-02-16T06:11:13.613Z,28.7
2019-02-16T06:12:00.677Z,29.1
2019-02-16T06:12:50.733Z,29.5
2019-02-16T06:13:41.043Z,29.8
2019-02-16T06:14:30.796Z,30.1
2019-02-16T06:15:21.316Z,30.4
2019-02-16T06:16:11.605Z,30.6
2019-02-16T06:17:00.365Z,30.9
2019-02-16T06:17:51.411Z,31.1
2019-02-16T06:18:40.482Z,31.3
2019-02-16T06:19:31.530Z,31.5
2019-02-16T06:20:20.788Z,30.8
2019-02-16T06:21:12.337Z,29.9
2019-02-16T06:22:00.870Z,28.4
2019-02-16T06:22:51.750Z,27.5
2019-02-16T06:23:41.863Z,26.2
2019-02-16T06:24:32.312Z,25.1
2019-02-16T06:25:22.189Z,24.6
2019-02-16T06:26:11.859Z,24.7
2019-02-16T06:27:01.319Z,25.5
2019-02-16T06:27:52.589Z,26.8
2019-02-16T06:29:32.242Z,28.7
2019-02-16T06:30:22.329Z,29.3
2019-02-16T06:31:12.957Z,29.9
2019-02-16T06:32:03.242Z,30.3
2019-02-16T06:32:53.341Z,30.6
2019-02-16T06:33:42.664Z,31
2019-02-16T06:34:34.853Z,31.3
2019-02-16T06:35:22.386Z,31.6
2019-02-16T06:36:11.913Z,31.9
2019-02-16T06:37:03.065Z,32.2
2019-02-16T06:37:52.529Z,32.4
2019-02-16T06:38:43.164Z,32.6
2019-02-16T06:39:33.663Z,32.9
2019-02-16T06:40:22.493Z,33.1
2019-02-16T06:41:13.151Z,33.2
2019-02-16T06:42:03.204Z,32.4
2019-02-16T06:42:53.779Z,32.1
2019-02-16T06:43:43.076Z,32
2019-02-16T06:44:33.583Z,31.7
2019-02-16T06:45:23.052Z,31.2
2019-02-16T06:46:13.401Z,30.6
2019-02-16T06:47:03.447Z,29.9
2019-02-16T06:47:53.225Z,29.3
2019-02-16T06:48:44.160Z,28.9
2019-02-16T06:49:33.189Z,28.5
2019-02-16T06:50:23.391Z,28.3
2019-02-16T06:51:16.445Z,28.2
2019-02-16T06:52:03.555Z,28
2019-02-16T06:53:44.193Z,27.6
2019-02-16T06:54:34.226Z,27.3
2019-02-16T06:55:24.064Z,27.9
2019-02-16T06:56:13.800Z,28.8
2019-02-16T06:57:04.973Z,29.4
2019-02-16T06:57:54.200Z,29.9
2019-02-16T06:58:44.847Z,30.4
2019-02-16T06:59:34.867Z,30.5
2019-02-16T07:00:24.769Z,29.9
2019-02-16T07:01:14.178Z,30
2019-02-16T07:02:05.343Z,29.9
2019-02-16T07:02:54.832Z,29.6
2019-02-16T07:03:44.935Z,29.4
2019-02-16T07:06:10.855Z,28.9
2019-02-16T07:07:00.120Z,28.8
2019-02-16T07:07:51.000Z,28.6
2019-02-16T07:08:40.565Z,28.6
2019-02-16T07:09:31.660Z,28.6
2019-02-16T07:10:20.929Z,28
2019-02-16T07:11:10.765Z,27.5
2019-02-16T07:12:01.311Z,27.2
2019-02-16T07:12:51.315Z,27
2019-02-16T07:13:40.860Z,26.9
2019-02-16T07:14:32.898Z,26.8
2019-02-16T07:15:21.559Z,26.6
2019-02-16T07:16:11.732Z,26.6
2019-02-16T07:17:01.628Z,26.3
2019-02-16T07:17:51.754Z,26.9
2019-02-16T07:19:31.515Z,28.5
2019-02-16T07:20:21.086Z,29.2
2019-02-16T07:21:12.197Z,29.6
2019-02-16T07:22:00.849Z,29.3
2019-02-16T07:22:51.469Z,29.1
2019-02-16T07:23:42.245Z,28.9
2019-02-16T07:24:32.304Z,28.8
2019-02-16T07:25:22.005Z,28.8
2019-02-16T07:26:13.061Z,28.7
2019-02-16T07:27:02.437Z,28.6
2019-02-16T07:27:51.893Z,28.6
2019-02-16T07:28:41.889Z,28.5
2019-02-16T07:29:33.096Z,28.4
2019-02-16T07:30:22.379Z,28.3
2019-02-16T07:31:11.884Z,27.9
2019-02-16T07:32:03.059Z,27.5
2019-02-16T07:32:52.229Z,27.3
2019-02-16T07:33:42.827Z,27.1
2019-02-16T07:34:32.377Z,27
2019-02-16T07:35:22.971Z,26.9
2019-02-16T07:36:13.213Z,26.8
2019-02-16T07:37:02.160Z,26.8
2019-02-16T07:37:53.091Z,26.7
2019-02-16T07:38:43.468Z,26.6
2019-02-16T07:39:32.711Z,26.3
2019-02-16T07:40:22.758Z,26.6
2019-02-16T07:41:13.048Z,27.6
2019-02-16T07:42:04.885Z,28.3
2019-02-16T07:42:53.238Z,29
2019-02-16T07:43:42.393Z,29.6
2019-02-16T07:44:33.033Z,29.3
2019-02-16T07:45:23.679Z,29.1
2019-02-16T07:46:13.739Z,28.9
2019-02-16T07:47:03.716Z,28.8
2019-02-16T07:47:53.223Z,28.8
2019-02-16T07:48:43.534Z,28.6
2019-02-16T07:49:33.401Z,28.6
2019-02-16T07:50:23.151Z,28.6
2019-02-16T07:51:13.754Z,28.5
2019-02-16T07:52:03.788Z,28.4
2019-02-16T07:52:54.053Z,28.4
2019-02-16T07:53:43.815Z,28
2019-02-16T07:54:34.250Z,27.6
2019-02-16T07:55:26.713Z,27.3
2019-02-16T07:56:14.085Z,27.1
2019-02-16T07:57:03.549Z,27
2019-02-16T07:57:53.858Z,26.9
2019-02-16T07:58:43.878Z,26.8
2019-02-16T07:59:34.250Z,26.7
2019-02-16T08:00:24.295Z,26.6
2019-02-16T08:01:14.457Z,26.6
2019-02-16T08:02:03.963Z,26.3
2019-02-16T08:02:54.480Z,26.6
2019-02-16T08:03:44.824Z,27.6
2019-02-16T08:04:35.260Z,28.3
2019-02-16T08:05:24.980Z,28.9
2019-02-16T08:06:14.222Z,29.6
2019-02-16T08:07:05.133Z,29.4
2019-02-16T08:07:54.292Z,29.1
2019-02-16T08:08:44.626Z,28.9
2019-02-16T08:09:35.254Z,28.9
2019-02-16T08:10:25.005Z,28.8
2019-02-16T08:11:15.034Z,28.7
2019-02-16T08:12:05.637Z,28.6
2019-02-16T08:12:54.865Z,28.6
2019-02-16T08:13:45.193Z,28.5
2019-02-16T08:14:34.729Z,28.4
2019-02-16T08:15:25.579Z,28.3
2019-02-16T08:16:14.849Z,28.2
2019-02-16T08:17:05.497Z,27.8
2019-02-16T08:17:54.730Z,27.4
2019-02-16T08:18:46.124Z,27.2
2019-02-16T08:19:35.350Z,27
2019-02-16T08:20:26.052Z,26.9
2019-02-16T08:21:16.014Z,26.8
2019-02-16T08:22:05.571Z,26.7
2019-02-16T08:22:55.629Z,26.6
2019-02-16T08:23:47.346Z,26.5
2019-02-16T08:24:35.951Z,26.3
2019-02-16T08:25:25.512Z,26.4
2019-02-16T08:26:15.512Z,27.3
2019-02-16T08:27:05.849Z,28
2019-02-16T08:27:56.269Z,28.8
2019-02-16T08:28:46.248Z,29.4
2019-02-16T08:29:36.294Z,29.4
2019-02-16T08:30:26.158Z,29.1
2019-02-16T08:31:16.721Z,28.9
2019-02-16T08:32:06.496Z,28.8
2019-02-16T08:32:55.384Z,28.6
2019-02-16T08:33:46.631Z,28.6
2019-02-16T08:34:36.363Z,28.4
2019-02-16T08:35:27.013Z,28.4
2019-02-16T08:36:15.938Z,28.3
2019-02-16T08:37:07.403Z,28.3
2019-02-16T08:37:57.008Z,28.1
2019-02-16T08:38:46.701Z,28.1
2019-02-16T08:39:37.026Z,27.7
2019-02-16T08:40:27.368Z,27.2
2019-02-16T08:41:16.597Z,26.9
2019-02-16T08:42:07.977Z,26.7
2019-02-16T08:42:57.803Z,26.5
2019-02-16T08:43:47.063Z,26.4
2019-02-16T08:44:37.330Z,26.3
2019-02-16T08:45:27.660Z,26.2
2019-02-16T08:46:17.990Z,25.9
2019-02-16T08:47:06.961Z,26.4
2019-02-16T08:47:57.860Z,27.3
2019-02-16T08:48:47.614Z,28.1
2019-02-16T08:49:37.090Z,28.8
2019-02-16T08:50:30.105Z,29.6
2019-02-16T08:51:17.315Z,29.3
2019-02-16T08:52:07.637Z,29.1
2019-02-16T08:52:57.057Z,28.9
2019-02-16T08:53:57.700Z,28.8
2019-02-16T08:54:38.032Z,28.7
2019-02-16T08:55:28.917Z,28.6
2019-02-16T08:56:18.475Z,28.6
2019-02-16T08:57:07.969Z,28.5
2019-02-16T08:57:58.824Z,28.4
2019-02-16T08:58:48.699Z,28.3
2019-02-16T08:59:38.411Z,28.3
2019-02-16T09:00:28.407Z,28.2
2019-02-16T09:01:17.449Z,28.1
2019-02-16T09:02:07.783Z,28
2019-02-16T09:02:58.883Z,27.9
2019-02-16T09:04:38.499Z,27.8
2019-02-16T09:05:27.931Z,27.6
2019-02-16T09:06:19.361Z,27.3
2019-02-16T09:07:07.682Z,28
2019-02-16T09:07:59.530Z,28.7
2019-02-16T09:08:49.317Z,29.4
2019-02-16T09:09:39.382Z,30
2019-02-16T09:10:29.396Z,30.3
2019-02-16T09:11:19.730Z,30.6
2019-02-16T09:12:11.484Z,30.8
2019-02-16T09:12:59.829Z,30.9
2019-02-16T09:13:49.630Z,31.1
2019-02-16T09:14:39.526Z,31.4
2019-02-16T09:15:29.170Z,30.6
2019-02-16T09:16:19.581Z,30
2019-02-16T09:17:10.200Z,29.6
2019-02-16T09:17:59.951Z,29.4
2019-02-16T09:18:50.250Z,29.3
2019-02-16T09:19:38.676Z,29.1
2019-02-16T09:20:30.413Z,28.9
2019-02-16T09:21:22.743Z,28.9
2019-02-16T09:22:10.210Z,28.8
2019-02-16T09:22:59.772Z,28.7
2019-02-16T09:23:58.546Z,28.7
2019-02-16T09:24:40.855Z,28.6
2019-02-16T09:25:29.700Z,28.5
2019-02-16T09:26:19.701Z,28.5
2019-02-16T09:27:11.743Z,28.4
2019-02-16T09:28:00.885Z,28.4
2019-02-16T09:28:50.997Z,28.3
2019-02-16T09:29:39.979Z,28.3
2019-02-16T09:31:21.132Z,27.9
2019-02-16T09:32:10.615Z,28.8
2019-02-16T09:33:00.959Z,29.5
2019-02-16T09:33:50.460Z,30.2
2019-02-16T09:34:41.031Z,30.5
2019-02-16T09:35:30.822Z,30.8
2019-02-16T09:36:20.629Z,31
2019-02-16T09:37:11.010Z,31.2
2019-02-16T09:38:01.547Z,31.4
2019-02-16T09:38:50.616Z,31
2019-02-16T09:39:41.985Z,30.6
2019-02-16T09:40:30.859Z,30.6
2019-02-16T09:41:21.277Z,30.3
2019-02-16T09:42:11.031Z,30.1
2019-02-16T09:43:03.180Z,29.8
2019-02-16T09:43:51.685Z,29.6
2019-02-16T09:44:41.449Z,29.4
2019-02-16T09:45:31.269Z,29.3
2019-02-16T09:46:22.439Z,29.2
2019-02-16T09:47:11.736Z,29.1
2019-02-16T09:48:01.379Z,29
2019-02-16T09:48:51.458Z,28.9
2019-02-16T09:49:42.622Z,28.9
2019-02-16T09:50:34.913Z,28.9
2019-02-16T09:51:21.696Z,28.8
2019-02-16T09:52:12.277Z,28.8
2019-02-16T09:53:02.299Z,28.8
2019-02-16T09:53:52.358Z,28.7
2019-02-16T09:54:42.699Z,28
2019-02-16T09:55:31.431Z,28
2019-02-16T09:56:22.026Z,28.7
2019-02-16T09:57:12.045Z,29.3
2019-02-16T09:58:02.113Z,29.6
2019-02-16T09:58:51.577Z,29.9
2019-02-16T09:59:42.514Z,30.3
2019-02-16T10:00:32.610Z,30.5
2019-02-16T10:01:22.320Z,30.8
2019-02-16T10:02:12.930Z,31.1
2019-02-16T10:03:02.148Z,31.4
2019-02-16T10:03:52.752Z,30.9
2019-02-16T10:04:44.874Z,30.4
2019-02-16T10:07:10.517Z,29.8
2019-02-16T10:08:00.477Z,29.4
2019-02-16T10:08:51.156Z,29.2
2019-02-16T10:09:40.870Z,29
2019-02-16T10:10:30.712Z,28.9
2019-02-16T10:11:20.747Z,28.8
2019-02-16T10:12:11.362Z,28.6
2019-02-16T10:13:03.205Z,28.6
2019-02-16T10:13:50.952Z,28.6
2019-02-16T10:14:40.414Z,28.5
2019-02-16T10:15:30.769Z,28.5
2019-02-16T10:16:21.689Z,28.5
2019-02-16T10:17:13.945Z,28.5
2019-02-16T10:18:00.902Z,28.4
2019-02-16T10:18:51.789Z,28.4
2019-02-16T10:19:40.436Z,28.3
2019-02-16T10:20:31.607Z,27.8
2019-02-16T10:21:21.999Z,28.4
2019-02-16T10:22:11.509Z,29.2
2019-02-16T10:23:01.834Z,29.6
2019-02-16T10:23:51.851Z,30
2019-02-16T10:24:41.079Z,30.3
2019-02-16T10:25:31.732Z,30.6
2019-02-16T10:26:21.178Z,30.9
2019-02-16T10:27:11.527Z,31.3
2019-02-16T10:28:02.154Z,31.5
2019-02-16T10:28:52.764Z,31.1
2019-02-16T10:29:41.406Z,30.7
2019-02-16T10:30:32.115Z,30.7
2019-02-16T10:31:22.669Z,30.4
2019-02-16T10:32:12.841Z,30
2019-02-16T10:33:02.558Z,29.6
2019-02-16T10:33:52.038Z,29.4
2019-02-16T10:34:42.615Z,29.2
2019-02-16T10:35:32.672Z,29.1
2019-02-16T10:36:22.498Z,29
2019-02-16T10:37:11.938Z,28.9
2019-02-16T10:38:03.446Z,28.8
2019-02-16T10:38:52.611Z,28.8
2019-02-16T10:39:43.216Z,28.7
2019-02-16T10:40:32.458Z,28.6
2019-02-16T10:41:22.483Z,28.6
2019-02-16T10:42:12.583Z,28.6
2019-02-16T10:43:02.101Z,28.6
2019-02-16T10:43:52.476Z,28.5
2019-02-16T10:44:43.000Z,28
2019-02-16T10:45:33.066Z,28
2019-02-16T10:46:22.890Z,28.8
2019-02-16T10:47:13.205Z,29.4
2019-02-16T10:48:03.785Z,29.9
2019-02-16T10:48:53.887Z,30.3
2019-02-16T10:49:43.188Z,30.6
2019-02-16T10:50:32.862Z,30.9
2019-02-16T10:51:23.187Z,31.2
2019-02-16T10:52:14.108Z,31.5
2019-02-16T10:53:02.898Z,31.6
2019-02-16T10:53:53.648Z,30.8
2019-02-16T10:54:44.260Z,30.8
2019-02-16T10:55:33.771Z,30.6
2019-02-16T10:56:24.099Z,30.3
2019-02-16T10:57:14.799Z,30.1
2019-02-16T10:58:04.263Z,29.9
2019-02-16T10:58:53.454Z,29.8
2019-02-16T10:59:47.391Z,29.6
2019-02-16T11:00:33.549Z,29.6
2019-02-16T11:01:23.092Z,29.5
2019-02-16T11:02:16.398Z,29.4
2019-02-16T11:03:04.342Z,29.4
2019-02-16T11:03:53.837Z,29.3
2019-02-16T11:04:45.934Z,29.3
2019-02-16T11:05:34.586Z,29.3
2019-02-16T11:06:24.513Z,29.2
2019-02-16T11:07:14.839Z,29.2
2019-02-16T11:08:05.261Z,29.1
2019-02-16T11:08:54.189Z,29.1
2019-02-16T11:09:44.281Z,28.3
2019-02-16T11:10:34.533Z,28.6
2019-02-16T11:11:24.954Z,29.3
2019-02-16T11:12:15.184Z,29.9
2019-02-16T11:13:04.978Z,30.6
2019-02-16T11:13:53.898Z,30.1
2019-02-16T11:14:44.847Z,29.6
2019-02-16T11:15:36.541Z,29.3
2019-02-16T11:16:25.746Z,29.1
2019-02-16T11:17:15.246Z,29
2019-02-16T11:18:05.376Z,28.9
2019-02-16T11:18:55.423Z,28.8
2019-02-16T11:19:45.718Z,28.7
2019-02-16T11:20:34.800Z,28.6
2019-02-16T11:21:25.208Z,28.5
2019-02-16T11:22:15.987Z,28.4
2019-02-16T11:23:05.178Z,28.4
2019-02-16T11:23:55.186Z,28.3
2019-02-16T11:24:45.758Z,28.2
2019-02-16T11:25:35.836Z,28.1
2019-02-16T11:26:25.900Z,27.7
2019-02-16T11:27:15.388Z,28.6
2019-02-16T11:28:05.164Z,29.5
2019-02-16T11:28:56.944Z,30
2019-02-16T11:29:46.135Z,30.4
2019-02-16T11:30:36.767Z,30.8